createdAt,value
2018-05-16T00:01:08.478Z,53.83
2018-05-16T00:03:37.311Z,53.79
2018-05-16T00:06:06.147Z,53.76
2018-05-16T00:08:34.997Z,53.83
2018-05-16T00:11:03.818Z,53.73
2018-05-16T00:13:32.649Z,53.98
2018-05-16T00:16:01.484Z,53.55
2018-05-16T00:18:30.285Z,53.71
2018-05-16T00:20:59.138Z,53.68
2018-05-16T00:23:27.954Z,53.98
2018-05-16T00:25:56.755Z,54.60
2018-05-16T00:28:25.586Z,55.07
2018-05-16T00:30:54.386Z,55.58
2018-05-16T00:33:23.241Z,55.81
2018-05-16T00:35:52.064Z,55.99
2018-05-16T00:38:20.938Z,56.55
2018-05-16T00:40:49.699Z,56.78
2018-05-16T00:43:18.540Z,56.74
2018-05-16T00:45:47.379Z,56.62
2018-05-16T00:48:16.214Z,56.93
2018-05-16T00:51:23.881Z,57.77
2018-05-16T00:53:52.695Z,57.54
2018-05-16T00:56:21.512Z,57.68
2018-05-16T00:58:50.359Z,57.87
2018-05-16T01:01:19.176Z,58.31
2018-05-16T01:03:48.008Z,58.48
2018-05-16T01:06:16.843Z,58.97
2018-05-16T01:08:45.641Z,58.99
2018-05-16T01:11:14.460Z,59.22
2018-05-16T01:13:43.279Z,59.14
2018-05-16T01:16:12.092Z,59.15
2018-05-16T01:18:40.928Z,59.58
2018-05-16T01:21:09.760Z,59.45
2018-05-16T01:23:38.562Z,59.46
2018-05-16T01:26:07.376Z,59.71
2018-05-16T01:28:36.211Z,59.75
2018-05-16T01:31:05.029Z,59.24
2018-05-16T01:33:33.890Z,59.48
2018-05-16T01:36:02.708Z,59.55
2018-05-16T01:38:31.533Z,59.87
2018-05-16T01:41:00.326Z,59.74
2018-05-16T01:43:29.154Z,59.99
2018-05-16T01:45:57.953Z,59.98
2018-05-16T01:48:26.790Z,60.33
2018-05-16T01:50:55.609Z,60.46
2018-05-16T01:53:24.408Z,61.01
2018-05-16T01:55:53.243Z,61.09
2018-05-16T01:58:22.046Z,60.94
2018-05-16T02:00:50.873Z,61.04
2018-05-16T02:03:19.693Z,60.39
2018-05-16T02:05:48.540Z,60.56
2018-05-16T02:08:17.356Z,60.70
2018-05-16T02:10:46.174Z,60.50
2018-05-16T02:13:15.010Z,60.41
2018-05-16T02:15:43.807Z,60.69
2018-05-16T02:18:12.610Z,60.86
2018-05-16T02:20:41.558Z,60.51
2018-05-16T02:23:10.395Z,60.35
2018-05-16T02:25:39.209Z,60.03
2018-05-16T02:28:08.025Z,60.56
2018-05-16T02:30:36.835Z,60.60
2018-05-16T02:33:05.673Z,60.35
2018-05-16T02:35:34.490Z,60.18
2018-05-16T02:38:03.303Z,60.53
2018-05-16T02:40:32.152Z,60.38
2018-05-16T02:43:00.972Z,60.35
2018-05-16T02:45:29.816Z,60.57
2018-05-16T02:47:58.641Z,60.93
2018-05-16T02:50:27.477Z,61.02
2018-05-16T02:52:56.295Z,61.11
2018-05-16T02:55:25.125Z,60.92
2018-05-16T02:57:53.952Z,60.83
2018-05-16T03:00:22.794Z,60.82
2018-05-16T03:02:51.608Z,60.96
2018-05-16T03:05:20.431Z,61.39
2018-05-16T03:07:49.282Z,61.06
2018-05-16T03:10:18.104Z,61.13
2018-05-16T03:12:46.934Z,61.28
2018-05-16T03:15:15.728Z,61.14
2018-05-16T03:17:44.561Z,61.02
2018-05-16T03:20:13.388Z,61.20
2018-05-16T03:22:42.197Z,61.20
2018-05-16T03:25:11.056Z,61.34
2018-05-16T03:27:39.878Z,62.27
2018-05-16T03:30:08.694Z,62.47
2018-05-16T03:32:37.549Z,62.48
2018-05-16T03:35:06.347Z,62.53
2018-05-16T03:37:35.201Z,62.24
2018-05-16T03:40:04.037Z,62.33
2018-05-16T03:42:32.875Z,62.09
2018-05-16T03:45:01.704Z,62.10
2018-05-16T03:47:30.551Z,61.66
2018-05-16T03:49:59.361Z,61.27
2018-05-16T03:52:28.185Z,61.20
2018-05-16T03:54:57.005Z,60.64
2018-05-16T03:58:03.493Z,59.77
2018-05-16T04:01:23.232Z,59.28
2018-05-16T04:04:17.496Z,58.42
2018-05-16T04:06:46.312Z,58.18
2018-05-16T04:09:15.151Z,57.94
2018-05-16T04:11:43.964Z,57.76
2018-05-16T04:14:12.796Z,57.85
2018-05-16T04:16:41.616Z,58.10
2018-05-16T04:19:10.428Z,58.25
2018-05-16T04:21:39.243Z,57.76
2018-05-16T04:24:08.085Z,58.01
2018-05-16T04:26:36.903Z,57.67
2018-05-16T04:29:05.725Z,57.65
2018-05-16T04:31:34.562Z,57.78
2018-05-16T04:34:03.380Z,57.44
2018-05-16T04:36:32.230Z,57.62
2018-05-16T04:39:01.038Z,57.56
2018-05-16T04:41:29.862Z,57.84
2018-05-16T04:43:58.689Z,57.21
2018-05-16T04:46:27.477Z,56.94
2018-05-16T04:48:56.284Z,56.93
2018-05-16T04:51:27.936Z,56.88
2018-05-16T04:53:56.733Z,56.88
2018-05-16T04:56:25.543Z,56.87
2018-05-16T04:58:54.388Z,56.62
2018-05-16T05:01:23.215Z,56.62
2018-05-16T05:03:52.021Z,56.32
2018-05-16T05:06:20.866Z,56.25
2018-05-16T05:08:49.749Z,56.21
2018-05-16T05:11:18.519Z,56.20
2018-05-16T05:13:47.378Z,55.97
2018-05-16T05:16:16.236Z,55.69
2018-05-16T05:18:45.099Z,55.70
2018-05-16T05:21:13.905Z,55.59
2018-05-16T05:23:42.735Z,55.72
2018-05-16T05:26:11.564Z,55.52
2018-05-16T05:28:40.384Z,55.37
2018-05-16T05:31:09.213Z,55.46
2018-05-16T05:33:38.060Z,56.01
2018-05-16T05:36:06.894Z,55.92
2018-05-16T05:38:35.729Z,55.42
2018-05-16T05:41:04.547Z,55.68
2018-05-16T05:43:33.397Z,55.86
2018-05-16T05:46:02.216Z,55.64
2018-05-16T05:48:31.154Z,55.34
2018-05-16T05:50:59.905Z,55.56
2018-05-16T05:53:28.744Z,55.31
2018-05-16T05:55:57.593Z,54.64
2018-05-16T05:58:26.438Z,54.35
2018-05-16T06:00:55.298Z,54.20
2018-05-16T06:03:24.117Z,53.97
2018-05-16T06:05:52.991Z,54.23
2018-05-16T06:08:21.934Z,53.82
2018-05-16T06:10:50.907Z,53.73
2018-05-16T06:13:19.709Z,53.86
2018-05-16T06:15:48.534Z,53.64
2018-05-16T06:18:17.365Z,53.62
2018-05-16T06:20:46.260Z,52.70
2018-05-16T06:23:15.050Z,52.83
2018-05-16T06:25:43.866Z,53.55
2018-05-16T06:28:12.771Z,53.43
2018-05-16T06:30:41.758Z,53.48
2018-05-16T06:33:10.613Z,52.98
2018-05-16T06:35:39.484Z,53.13
2018-05-16T06:38:08.361Z,53.50
2018-05-16T06:40:37.398Z,54.21
2018-05-16T06:43:06.378Z,54.55
2018-05-16T06:45:35.179Z,54.46
2018-05-16T06:48:04.018Z,54.79
2018-05-16T06:50:32.845Z,54.93
2018-05-16T06:53:01.805Z,54.85
2018-05-16T06:55:30.559Z,55.24
2018-05-16T06:58:00.235Z,55.47
2018-05-16T07:00:29.031Z,55.63
2018-05-16T07:02:57.893Z,56.06
2018-05-16T07:05:26.706Z,57.71
2018-05-16T07:07:55.572Z,58.24
2018-05-16T07:10:24.822Z,58.89
2018-05-16T07:12:54.785Z,59.66
2018-05-16T07:15:23.940Z,60.12
2018-05-16T07:17:52.988Z,60.40
2018-05-16T07:20:22.122Z,60.96
2018-05-16T07:22:51.527Z,60.90
2018-05-16T07:25:20.487Z,61.56
2018-05-16T07:27:49.578Z,61.35
2018-05-16T07:30:18.523Z,62.12
2018-05-16T07:32:47.801Z,62.99
2018-05-16T07:35:19.939Z,63.30
2018-05-16T07:37:49.254Z,64.14
2018-05-16T07:40:19.172Z,64.57
2018-05-16T07:42:48.453Z,65.71
2018-05-16T07:45:17.630Z,66.54
2018-05-16T07:47:46.768Z,66.25
2018-05-16T07:50:16.112Z,66.23
2018-05-16T07:52:45.001Z,66.75
2018-05-16T07:55:14.368Z,66.90
2018-05-16T07:57:43.367Z,67.06
2018-05-16T08:00:12.420Z,66.61
2018-05-16T08:02:41.437Z,66.96
2018-05-16T08:05:10.870Z,67.47
2018-05-16T08:07:39.912Z,67.85
2018-05-16T08:10:08.749Z,67.95
2018-05-16T08:12:38.162Z,68.80
2018-05-16T08:15:07.414Z,68.67
2018-05-16T08:17:36.756Z,68.80
2018-05-16T08:20:05.855Z,67.99
2018-05-16T08:22:35.004Z,68.46
2018-05-16T08:25:04.174Z,68.42
2018-05-16T08:27:33.442Z,69.12
2018-05-16T08:30:03.035Z,68.95
2018-05-16T08:32:32.563Z,69.10
2018-05-16T08:35:01.716Z,68.93
2018-05-16T08:37:30.842Z,68.09
2018-05-16T08:40:00.028Z,68.80
2018-05-16T08:42:29.028Z,67.47
2018-05-16T08:44:58.045Z,68.53
2018-05-16T08:47:27.145Z,68.34
2018-05-16T08:49:56.294Z,69.21
2018-05-16T08:52:25.313Z,68.87
2018-05-16T08:54:54.481Z,69.29
2018-05-16T08:57:23.716Z,69.38
2018-05-16T08:59:53.041Z,69.67
2018-05-16T09:02:22.227Z,69.74
2018-05-16T09:04:51.248Z,69.96
2018-05-16T09:07:20.302Z,70.08
2018-05-16T09:09:49.807Z,69.62
2018-05-16T09:12:18.869Z,70.96
2018-05-16T09:14:48.152Z,70.59
2018-05-16T09:17:17.504Z,71.04
2018-05-16T09:19:46.410Z,71.54
2018-05-16T09:22:17.020Z,71.32
2018-05-16T09:24:45.964Z,71.06
2018-05-16T09:27:15.355Z,71.38
2018-05-16T09:29:44.492Z,71.00
2018-05-16T09:32:13.577Z,71.37
2018-05-16T09:34:42.555Z,71.11
2018-05-16T09:37:11.947Z,71.16
2018-05-16T09:39:41.219Z,70.95
2018-05-16T09:42:11.068Z,70.81
2018-05-16T09:44:40.416Z,70.73
2018-05-16T09:47:09.665Z,70.66
2018-05-16T09:49:39.060Z,70.80
2018-05-16T09:52:08.389Z,71.22
2018-05-16T09:54:37.595Z,70.72
2018-05-16T09:57:07.749Z,70.37
2018-05-16T09:59:36.744Z,70.58
2018-05-16T10:02:05.869Z,70.22
2018-05-16T10:04:34.977Z,69.65
2018-05-16T10:07:04.230Z,69.14
2018-05-16T10:09:33.192Z,69.80
2018-05-16T10:12:02.347Z,69.31
2018-05-16T10:14:31.719Z,68.23
2018-05-16T10:17:01.619Z,68.46
2018-05-16T10:19:30.849Z,68.83
2018-05-16T10:22:00.744Z,68.87
2018-05-16T10:24:30.050Z,69.23
2018-05-16T10:26:59.040Z,67.75
2018-05-16T10:29:28.585Z,66.89
2018-05-16T10:31:57.877Z,66.08
2018-05-16T10:34:27.159Z,65.67
2018-05-16T10:36:56.175Z,64.22
2018-05-16T10:39:25.378Z,64.38
2018-05-16T10:41:54.933Z,63.03
2018-05-16T10:44:24.163Z,62.43
2018-05-16T10:46:53.511Z,61.89
2018-05-16T10:49:22.655Z,60.75
2018-05-16T10:51:51.653Z,59.87
2018-05-16T10:54:21.469Z,57.94
2018-05-16T10:56:50.642Z,57.38
2018-05-16T10:59:19.774Z,49.42
2018-05-16T11:01:49.665Z,49.64
2018-05-16T11:04:54.524Z,47.53
2018-05-16T11:07:23.846Z,45.17
2018-05-16T11:09:53.343Z,42.32
2018-05-16T11:12:22.332Z,42.19
2018-05-16T11:14:51.354Z,44.61
2018-05-16T11:17:20.643Z,41.70
2018-05-16T11:19:49.787Z,42.27
2018-05-16T11:22:18.851Z,41.34
2018-05-16T11:24:47.928Z,41.89
2018-05-16T11:27:16.881Z,43.49
2018-05-16T11:29:46.119Z,40.99
2018-05-16T11:32:17.752Z,39.34
2018-05-16T11:34:46.831Z,41.77
2018-05-16T11:37:16.009Z,39.78
2018-05-16T11:39:45.111Z,38.03
2018-05-16T11:42:14.221Z,37.47
2018-05-16T11:44:43.275Z,37.23
2018-05-16T11:47:12.384Z,36.15
2018-05-16T11:49:41.595Z,35.59
2018-05-16T11:52:10.798Z,34.35
2018-05-16T11:54:40.100Z,36.53
2018-05-16T11:57:09.134Z,34.97
2018-05-16T11:59:38.146Z,37.42
2018-05-16T12:02:07.319Z,38.61
2018-05-16T12:04:36.375Z,39.76
2018-05-16T12:07:05.259Z,38.79
2018-05-16T12:09:35.461Z,38.18
2018-05-16T12:12:06.599Z,36.74
2018-05-16T12:14:37.057Z,37.07
2018-05-16T12:17:07.715Z,36.10
2018-05-16T12:19:36.822Z,35.99
2018-05-16T12:22:05.822Z,38.31
2018-05-16T12:24:35.388Z,38.92
2018-05-16T12:27:04.343Z,39.31
2018-05-16T12:29:33.685Z,39.56
2018-05-16T12:32:03.270Z,40.57
2018-05-16T12:34:32.587Z,39.87
2018-05-16T12:37:01.482Z,39.01
2018-05-16T12:39:30.897Z,38.24
2018-05-16T12:41:59.939Z,38.08
2018-05-16T12:44:28.949Z,36.00
2018-05-16T12:46:58.166Z,37.35
2018-05-16T12:49:30.236Z,35.49
2018-05-16T12:51:59.154Z,37.22
2018-05-16T12:54:28.284Z,37.25
2018-05-16T12:56:57.401Z,37.41
2018-05-16T12:59:26.468Z,36.47
2018-05-16T13:01:55.298Z,36.78
2018-05-16T13:04:24.756Z,37.59
2018-05-16T13:06:54.040Z,38.68
2018-05-16T13:09:22.989Z,38.82
2018-05-16T13:11:52.703Z,38.76
2018-05-16T13:14:21.795Z,39.92
2018-05-16T13:16:51.031Z,40.25
2018-05-16T13:19:21.050Z,41.40
2018-05-16T13:21:50.030Z,41.65
2018-05-16T13:24:18.996Z,42.12
2018-05-16T13:26:48.218Z,41.71
2018-05-16T13:29:18.016Z,41.57
2018-05-16T13:31:47.184Z,42.06
2018-05-16T13:34:16.337Z,42.89
2018-05-16T13:36:45.364Z,42.56
2018-05-16T13:39:14.337Z,42.94
2018-05-16T13:41:43.608Z,42.94
2018-05-16T13:44:12.470Z,43.63
2018-05-16T13:46:41.857Z,43.92
2018-05-16T13:49:13.479Z,45.28
2018-05-16T13:51:42.521Z,46.13
2018-05-16T13:54:11.330Z,45.62
2018-05-16T13:56:40.222Z,45.47
2018-05-16T13:59:09.019Z,44.50
2018-05-16T14:01:37.859Z,45.28
2018-05-16T14:04:06.728Z,44.66
2018-05-16T14:06:35.713Z,43.66
2018-05-16T14:09:05.562Z,44.41
2018-05-16T14:11:34.420Z,44.17
2018-05-16T14:14:03.434Z,44.54
2018-05-16T14:16:32.510Z,45.15
2018-05-16T14:19:01.458Z,43.99
2018-05-16T14:21:30.272Z,43.49
2018-05-16T14:23:59.128Z,43.55
2018-05-16T14:26:27.960Z,42.11
2018-05-16T14:28:56.819Z,42.37
2018-05-16T14:31:25.667Z,42.42
2018-05-16T14:33:54.501Z,44.21
2018-05-16T14:36:23.332Z,44.16
2018-05-16T14:38:52.152Z,43.86
2018-05-16T14:41:20.970Z,43.91
2018-05-16T14:43:49.858Z,43.87
2018-05-16T14:46:18.706Z,43.83
2018-05-16T14:48:47.538Z,43.54
2018-05-16T14:51:16.392Z,43.60
2018-05-16T14:53:45.223Z,43.95
2018-05-16T14:56:14.076Z,43.97
2018-05-16T14:58:42.902Z,43.85
2018-05-16T15:01:11.747Z,43.43
2018-05-16T15:03:40.594Z,43.78
2018-05-16T15:06:09.444Z,44.37
2018-05-16T15:08:38.282Z,44.07
2018-05-16T15:11:07.293Z,43.99
2018-05-16T15:13:36.242Z,44.38
2018-05-16T15:16:05.325Z,44.80
2018-05-16T15:18:34.142Z,44.29
2018-05-16T15:21:02.959Z,44.54
2018-05-16T15:23:31.888Z,45.02
2018-05-16T15:26:00.712Z,44.79
2018-05-16T15:28:29.563Z,43.88
2018-05-16T15:30:58.389Z,42.50
2018-05-16T15:33:27.230Z,42.63
2018-05-16T15:35:56.045Z,42.43
2018-05-16T15:38:24.970Z,42.13
2018-05-16T15:40:53.701Z,43.00
2018-05-16T15:43:22.558Z,42.89
2018-05-16T15:45:51.382Z,41.82
2018-05-16T15:48:20.197Z,41.84
2018-05-16T15:50:49.040Z,42.40
2018-05-16T15:53:17.851Z,42.47
2018-05-16T15:55:46.682Z,42.91
2018-05-16T15:58:15.503Z,43.37
2018-05-16T16:00:44.384Z,43.06
2018-05-16T16:03:13.156Z,42.61
2018-05-16T16:05:41.975Z,43.24
2018-05-16T16:08:10.912Z,43.26
2018-05-16T16:10:39.640Z,42.97
2018-05-16T16:13:08.562Z,42.55
2018-05-16T16:15:37.400Z,42.98
2018-05-16T16:18:06.306Z,42.76
2018-05-16T16:20:35.123Z,43.34
2018-05-16T16:23:03.992Z,43.38
2018-05-16T16:25:32.808Z,43.47
2018-05-16T16:28:01.625Z,43.75
2018-05-16T16:30:30.448Z,43.08
2018-05-16T16:32:59.286Z,43.47
2018-05-16T16:35:28.107Z,43.43
2018-05-16T16:37:56.915Z,44.17
2018-05-16T16:40:25.757Z,43.93
2018-05-16T16:42:54.556Z,44.17
2018-05-16T16:45:23.407Z,43.73
2018-05-16T16:47:52.216Z,45.14
2018-05-16T16:50:21.034Z,45.65
2018-05-16T16:52:49.836Z,44.96
2018-05-16T16:55:18.655Z,45.29
2018-05-16T16:57:47.452Z,46.01
2018-05-16T17:00:16.286Z,45.02
2018-05-16T17:02:45.108Z,44.99
2018-05-16T17:05:13.899Z,44.77
2018-05-16T17:07:42.740Z,44.63
2018-05-16T17:10:11.570Z,45.17
2018-05-16T17:12:40.461Z,45.84
2018-05-16T17:15:09.405Z,46.23
2018-05-16T17:17:38.246Z,45.97
2018-05-16T17:20:07.382Z,47.09
2018-05-16T17:22:36.229Z,47.64
2018-05-16T17:25:05.038Z,47.91
2018-05-16T17:27:33.887Z,47.74
2018-05-16T17:30:02.701Z,48.16
2018-05-16T17:32:31.522Z,48.17
2018-05-16T17:35:00.345Z,47.53
2018-05-16T17:37:29.179Z,47.33
2018-05-16T17:39:57.996Z,47.21
2018-05-16T17:42:26.822Z,47.71
2018-05-16T17:44:55.654Z,47.33
2018-05-16T17:47:24.457Z,47.95
2018-05-16T17:49:53.288Z,48.52
2018-05-16T17:52:22.325Z,48.88
2018-05-16T17:54:51.155Z,49.83
2018-05-16T17:57:19.987Z,49.83
2018-05-16T17:59:48.849Z,50.20
2018-05-16T18:02:17.678Z,50.23
2018-05-16T18:04:46.481Z,50.60
2018-05-16T18:07:15.347Z,50.63
2018-05-16T18:09:44.161Z,50.80
2018-05-16T18:12:13.232Z,51.24
2018-05-16T18:15:25.873Z,51.57
2018-05-16T18:17:54.734Z,51.78
2018-05-16T18:20:23.534Z,51.60
2018-05-16T18:22:52.372Z,52.38
2018-05-16T18:25:21.304Z,52.42
2018-05-16T18:27:50.131Z,52.79
2018-05-16T18:30:18.961Z,52.96
2018-05-16T18:32:47.825Z,53.10
2018-05-16T18:35:16.663Z,53.23
2018-05-16T18:37:45.511Z,53.17
2018-05-16T18:40:14.331Z,53.92
2018-05-16T18:42:43.234Z,53.63
2018-05-16T18:45:12.010Z,53.68
2018-05-16T18:47:40.858Z,53.76
2018-05-16T18:50:09.651Z,54.66
2018-05-16T18:52:38.487Z,54.11
2018-05-16T18:55:07.324Z,54.37
2018-05-16T18:57:36.146Z,54.85
2018-05-16T19:00:05.030Z,55.01
2018-05-16T19:02:33.872Z,55.04
2018-05-16T19:05:02.711Z,55.39
2018-05-16T19:07:31.524Z,55.29
2018-05-16T19:10:00.389Z,56.02
2018-05-16T19:12:29.319Z,55.82
2018-05-16T19:14:58.322Z,56.37
2018-05-16T19:17:27.213Z,56.07
2018-05-16T19:19:56.120Z,56.16
2018-05-16T19:22:24.892Z,56.44
2018-05-16T19:24:53.711Z,56.45
2018-05-16T19:27:22.536Z,56.70
2018-05-16T19:29:51.327Z,56.87
2018-05-16T19:32:20.165Z,57.18
2018-05-16T19:34:48.985Z,57.17
2018-05-16T19:37:17.799Z,57.03
2018-05-16T19:39:46.604Z,57.13
2018-05-16T19:42:15.424Z,57.21
2018-05-16T19:44:44.219Z,57.59
2018-05-16T19:47:13.044Z,58.22
2018-05-16T19:49:41.830Z,58.15
2018-05-16T19:52:10.682Z,58.24
2018-05-16T19:54:39.522Z,58.55
2018-05-16T19:57:08.400Z,58.50
2018-05-16T19:59:37.197Z,58.32
2018-05-16T20:02:05.996Z,58.40
2018-05-16T20:04:34.850Z,58.61
2018-05-16T20:07:03.676Z,58.88
2018-05-16T20:09:32.542Z,58.48
2018-05-16T20:12:01.477Z,58.79
2018-05-16T20:14:30.389Z,59.09
2018-05-16T20:16:59.105Z,58.93
2018-05-16T20:19:27.927Z,58.90
2018-05-16T20:21:56.772Z,58.88
2018-05-16T20:24:25.586Z,59.30
2018-05-16T20:26:54.423Z,59.26
2018-05-16T20:29:23.285Z,58.98
2018-05-16T20:31:52.054Z,59.33
2018-05-16T20:34:20.873Z,58.45
2018-05-16T20:36:49.713Z,58.43
2018-05-16T20:39:18.517Z,58.27
2018-05-16T20:41:47.318Z,57.84
2018-05-16T20:44:16.184Z,58.11
2018-05-16T20:46:44.988Z,57.56
2018-05-16T20:49:13.865Z,57.28
2018-05-16T20:51:42.672Z,57.19
2018-05-16T20:54:11.524Z,57.47
2018-05-16T20:56:40.373Z,56.73
2018-05-16T20:59:09.219Z,57.26
2018-05-16T21:01:38.059Z,56.91
2018-05-16T21:04:06.884Z,56.91
2018-05-16T21:06:35.743Z,57.40
2018-05-16T21:09:05.820Z,57.37
2018-05-16T21:11:34.646Z,57.14
2018-05-16T21:14:03.500Z,57.02
2018-05-16T21:16:32.331Z,56.91
2018-05-16T21:19:01.304Z,56.71
2018-05-16T21:21:30.104Z,56.96
2018-05-16T21:23:58.904Z,56.56
2018-05-16T21:26:27.830Z,56.39
2018-05-16T21:28:56.649Z,56.17
2018-05-16T21:31:25.492Z,56.70
2018-05-16T21:33:54.316Z,56.62
2018-05-16T21:36:23.125Z,56.42
2018-05-16T21:38:51.971Z,56.73
2018-05-16T21:41:20.774Z,56.88
2018-05-16T21:43:49.590Z,56.98
2018-05-16T21:46:18.392Z,56.90
2018-05-16T21:48:47.224Z,56.91
2018-05-16T21:51:16.027Z,57.53
2018-05-16T21:53:44.832Z,57.41
2018-05-16T21:56:13.631Z,57.40
2018-05-16T21:58:42.455Z,58.27
2018-05-16T22:01:11.258Z,58.31
2018-05-16T22:03:40.070Z,58.09
2018-05-16T22:06:08.891Z,58.38
2018-05-16T22:08:37.701Z,58.47
2018-05-16T22:11:06.561Z,58.23
2018-05-16T22:13:35.508Z,59.02
2018-05-16T22:16:04.291Z,59.75
2018-05-16T22:18:33.095Z,59.73
2018-05-16T22:21:01.914Z,59.63
2018-05-16T22:23:30.752Z,59.79
2018-05-16T22:25:59.575Z,60.24
2018-05-16T22:28:28.377Z,59.92
2018-05-16T22:31:15.074Z,59.61
2018-05-16T22:34:01.862Z,60.12
2018-05-16T22:36:48.467Z,60.33
2018-05-16T22:39:34.972Z,60.55
2018-05-16T22:42:21.372Z,61.14
2018-05-16T22:44:50.208Z,61.30
2018-05-16T22:47:19.017Z,61.44
2018-05-16T22:49:47.826Z,61.44
2018-05-16T22:52:16.642Z,61.34
2018-05-16T22:54:45.459Z,61.56
2018-05-16T22:57:14.359Z,61.49
2018-05-16T22:59:43.190Z,62.24
2018-05-16T23:02:12.037Z,61.83
2018-05-16T23:04:40.860Z,62.05
2018-05-16T23:07:09.678Z,62.09
2018-05-16T23:09:38.565Z,62.23
2018-05-16T23:12:07.464Z,62.42
2018-05-16T23:14:36.286Z,62.12
2018-05-16T23:17:05.140Z,61.95
2018-05-16T23:19:33.946Z,63.30
2018-05-16T23:22:02.767Z,63.38
2018-05-16T23:24:31.569Z,62.74
2018-05-16T23:27:00.392Z,62.72
2018-05-16T23:29:29.217Z,63.12
2018-05-16T23:31:58.035Z,63.12
2018-05-16T23:34:26.848Z,63.10
2018-05-16T23:36:55.693Z,63.06
2018-05-16T23:39:24.498Z,63.02
2018-05-16T23:41:53.308Z,63.78
2018-05-16T23:44:22.135Z,64.18
2018-05-16T23:46:50.951Z,63.98
2018-05-16T23:49:19.742Z,63.86
2018-05-16T23:51:48.522Z,64.39
2018-05-16T23:54:17.332Z,64.28
2018-05-16T23:56:46.116Z,65.12
2018-05-16T23:59:14.963Z,65.07
